createdAt,value
2023-02-24T00:12:50.415Z,21.90
2023-02-24T00:27:51.885Z,21.90
2023-02-24T00:42:53.367Z,21.90
2023-02-24T00:57:54.844Z,21.80
2023-02-24T01:12:56.316Z,21.80
2023-02-24T01:27:57.790Z,21.80
2023-02-24T01:42:59.275Z,21.80
2023-02-24T01:58:00.756Z,21.80
2023-02-24T02:13:02.234Z,21.80
2023-02-24T02:28:03.729Z,21.80
2023-02-24T02:43:05.235Z,21.80
2023-02-24T02:58:06.696Z,21.80
2023-02-24T03:13:08.196Z,21.80
2023-02-24T03:28:09.700Z,21.80
2023-02-24T03:43:11.194Z,21.80
2023-02-24T03:58:12.665Z,21.80
2023-02-24T04:13:14.144Z,21.80
2023-02-24T04:28:15.704Z,21.80
2023-02-24T04:43:17.244Z,21.80
2023-02-24T04:58:18.737Z,21.70
2023-02-24T05:13:20.248Z,21.80
2023-02-24T05:28:21.716Z,21.80
2023-02-24T05:43:23.184Z,21.80
2023-02-24T05:58:24.663Z,21.80
2023-02-24T06:13:26.173Z,21.80
2023-02-24T06:28:27.656Z,21.80
2023-02-24T06:43:29.164Z,21.80
2023-02-24T06:58:30.715Z,21.80
2023-02-24T07:13:32.185Z,21.90
2023-02-24T07:28:33.792Z,21.90
2023-02-24T07:43:35.286Z,21.90
2023-02-24T07:58:36.727Z,21.90
2023-02-24T08:13:38.210Z,21.90
2023-02-24T08:28:39.669Z,21.90
2023-02-24T08:43:41.176Z,22.00
2023-02-24T08:58:42.669Z,22.00
2023-02-24T09:13:44.150Z,22.00
2023-02-24T09:28:45.732Z,22.10
2023-02-24T09:43:47.261Z,22.10
2023-02-24T09:58:48.739Z,22.10
2023-02-24T10:13:50.215Z,22.20
2023-02-24T10:28:51.793Z,22.20
2023-02-24T10:43:53.302Z,22.20
2023-02-24T10:58:54.783Z,22.20
2023-02-24T11:13:56.239Z,22.20
2023-02-24T11:28:57.678Z,22.30
2023-02-24T11:43:59.121Z,22.30
2023-02-24T11:59:00.596Z,22.30
2023-02-24T12:14:02.080Z,22.30
2023-02-24T12:29:03.557Z,22.40
2023-02-24T12:44:05.021Z,22.40
2023-02-24T12:59:06.523Z,22.30
2023-02-24T13:14:08.062Z,22.40
2023-02-24T13:29:09.579Z,22.40
2023-02-24T13:44:11.063Z,22.80
2023-02-24T13:59:12.540Z,23.30
2023-02-24T14:14:14.042Z,23.50
2023-02-24T14:29:15.506Z,23.50
2023-02-24T14:44:16.988Z,23.60
2023-02-24T14:59:18.469Z,23.40
2023-02-24T15:14:19.916Z,23.30
2023-02-24T15:29:21.379Z,23.40
2023-02-24T15:44:22.841Z,23.50
2023-02-24T15:59:24.304Z,23.40
2023-02-24T16:14:25.770Z,23.40
2023-02-24T16:29:27.241Z,23.30
2023-02-24T16:44:28.718Z,23.20
2023-02-24T16:59:30.168Z,23.00
2023-02-24T17:14:31.636Z,22.80
2023-02-24T17:29:33.116Z,22.80
2023-02-24T17:44:34.579Z,22.70
2023-02-24T17:59:36.029Z,22.70
2023-02-24T18:14:37.495Z,22.60
2023-02-24T18:29:38.965Z,22.60
2023-02-24T18:44:40.601Z,22.60
2023-02-24T18:59:42.051Z,22.50
2023-02-24T19:14:43.510Z,22.50
2023-02-24T19:29:44.961Z,22.40
2023-02-24T19:44:46.445Z,22.40
2023-02-24T19:59:47.941Z,22.40
2023-02-24T20:14:49.399Z,22.40
2023-02-24T20:29:53.646Z,22.40
2023-02-24T20:44:55.268Z,22.40
2023-02-24T21:00:03.385Z,22.30
2023-02-24T21:15:05.555Z,22.30
2023-02-24T21:30:07.041Z,22.30
2023-02-24T21:45:08.516Z,22.30
2023-02-24T22:00:09.993Z,22.20
2023-02-24T22:15:14.927Z,22.20
2023-02-24T22:30:16.386Z,22.20
2023-02-24T22:45:17.858Z,22.20
2023-02-24T23:00:19.323Z,22.20
2023-02-24T23:15:20.784Z,22.10
2023-02-24T23:30:22.255Z,22.10
2023-02-24T23:45:23.844Z,22.10
